sensor_id;sensor_type;location;lat;lon;timestamp;P1;durP1;ratioP1;P2;durP2;ratioP2
72720;SDS011;60835;50.974;10.322;2023-06-26T00:01:02;10.93;;;5.88;;
72720;SDS011;60835;50.974;10.322;2023-06-26T00:03:29;10.90;;;5.40;;
72720;SDS011;60835;50.974;10.322;2023-06-26T00:05:55;8.32;;;5.45;;
72720;SDS011;60835;50.974;10.322;2023-06-26T00:08:27;9.00;;;5.72;;
72720;SDS011;60835;50.974;10.322;2023-06-26T00:10:54;9.68;;;5.30;;
72720;SDS011;60835;50.974;10.322;2023-06-26T00:13:21;11.02;;;5.65;;
72720;SDS011;60835;50.974;10.322;2023-06-26T00:15:49;8.75;;;5.43;;
72720;SDS011;60835;50.974;10.322;2023-06-26T00:18:16;7.82;;;5.60;;
72720;SDS011;60835;50.974;10.322;2023-06-26T00:20:43;14.50;;;6.30;;
72720;SDS011;60835;50.974;10.322;2023-06-26T00:23:11;13.52;;;5.38;;
72720;SDS011;60835;50.974;10.322;2023-06-26T00:25:39;13.98;;;5.50;;
72720;SDS011;60835;50.974;10.322;2023-06-26T00:28:06;12.30;;;5.63;;
72720;SDS011;60835;50.974;10.322;2023-06-26T00:30:32;12.02;;;5.47;;
72720;SDS011;60835;50.974;10.322;2023-06-26T00:32:59;11.10;;;5.75;;
72720;SDS011;60835;50.974;10.322;2023-06-26T00:35:26;12.05;;;5.80;;
72720;SDS011;60835;50.974;10.322;2023-06-26T00:37:52;7.65;;;4.97;;
72720;SDS011;60835;50.974;10.322;2023-06-26T00:40:19;9.70;;;6.00;;
72720;SDS011;60835;50.974;10.322;2023-06-26T00:42:45;11.05;;;5.95;;
72720;SDS011;60835;50.974;10.322;2023-06-26T00:45:12;9.50;;;5.55;;
72720;SDS011;60835;50.974;10.322;2023-06-26T00:47:38;11.73;;;5.78;;
72720;SDS011;60835;50.974;10.322;2023-06-26T00:50:05;8.18;;;5.80;;
72720;SDS011;60835;50.974;10.322;2023-06-26T00:52:33;9.73;;;5.95;;
72720;SDS011;60835;50.974;10.322;2023-06-26T00:55:00;8.52;;;5.90;;
72720;SDS011;60835;50.974;10.322;2023-06-26T00:57:27;8.25;;;5.55;;
72720;SDS011;60835;50.974;10.322;2023-06-26T00:59:54;13.30;;;6.10;;
72720;SDS011;60835;50.974;10.322;2023-06-26T01:02:21;7.55;;;5.68;;
72720;SDS011;60835;50.974;10.322;2023-06-26T01:04:48;10.32;;;5.90;;
72720;SDS011;60835;50.974;10.322;2023-06-26T01:07:16;9.80;;;5.65;;
72720;SDS011;60835;50.974;10.322;2023-06-26T01:09:48;9.48;;;5.93;;
72720;SDS011;60835;50.974;10.322;2023-06-26T01:12:15;13.18;;;6.45;;
72720;SDS011;60835;50.974;10.322;2023-06-26T01:14:41;9.90;;;6.00;;
72720;SDS011;60835;50.974;10.322;2023-06-26T01:17:09;9.35;;;5.38;;
72720;SDS011;60835;50.974;10.322;2023-06-26T01:19:40;12.75;;;6.00;;
72720;SDS011;60835;50.974;10.322;2023-06-26T01:22:17;7.95;;;5.40;;
72720;SDS011;60835;50.974;10.322;2023-06-26T01:25:11;8.40;;;5.78;;
72720;SDS011;60835;50.974;10.322;2023-06-26T01:27:48;7.57;;;5.80;;
72720;SDS011;60835;50.974;10.322;2023-06-26T01:30:16;8.60;;;5.85;;
72720;SDS011;60835;50.974;10.322;2023-06-26T01:32:44;7.53;;;5.70;;
72720;SDS011;60835;50.974;10.322;2023-06-26T01:35:11;10.23;;;5.97;;
72720;SDS011;60835;50.974;10.322;2023-06-26T01:37:39;12.55;;;5.63;;
72720;SDS011;60835;50.974;10.322;2023-06-26T01:40:06;11.85;;;5.95;;
72720;SDS011;60835;50.974;10.322;2023-06-26T01:42:33;7.28;;;5.85;;
72720;SDS011;60835;50.974;10.322;2023-06-26T01:45:02;10.02;;;5.80;;
72720;SDS011;60835;50.974;10.322;2023-06-26T01:47:34;10.02;;;6.20;;
72720;SDS011;60835;50.974;10.322;2023-06-26T01:50:11;10.38;;;5.80;;
72720;SDS011;60835;50.974;10.322;2023-06-26T01:58:15;8.38;;;5.65;;
72720;SDS011;60835;50.974;10.322;2023-06-26T02:00:44;13.02;;;5.97;;
72720;SDS011;60835;50.974;10.322;2023-06-26T02:03:11;9.95;;;5.40;;
72720;SDS011;60835;50.974;10.322;2023-06-26T02:05:38;7.15;;;5.13;;
72720;SDS011;60835;50.974;10.322;2023-06-26T02:08:04;8.18;;;6.10;;
72720;SDS011;60835;50.974;10.322;2023-06-26T02:10:31;9.65;;;5.68;;
72720;SDS011;60835;50.974;10.322;2023-06-26T02:12:58;10.80;;;6.43;;
72720;SDS011;60835;50.974;10.322;2023-06-26T02:15:24;12.13;;;6.30;;
72720;SDS011;60835;50.974;10.322;2023-06-26T02:17:51;9.57;;;6.25;;
72720;SDS011;60835;50.974;10.322;2023-06-26T02:20:17;10.18;;;5.82;;
72720;SDS011;60835;50.974;10.322;2023-06-26T02:22:44;10.05;;;5.93;;
72720;SDS011;60835;50.974;10.322;2023-06-26T02:25:11;15.18;;;6.65;;
72720;SDS011;60835;50.974;10.322;2023-06-26T02:27:39;9.00;;;5.97;;
72720;SDS011;60835;50.974;10.322;2023-06-26T02:30:05;7.22;;;5.53;;
72720;SDS011;60835;50.974;10.322;2023-06-26T02:32:32;8.63;;;6.40;;
72720;SDS011;60835;50.974;10.322;2023-06-26T02:34:59;9.27;;;5.78;;
72720;SDS011;60835;50.974;10.322;2023-06-26T02:37:25;12.15;;;5.72;;
72720;SDS011;60835;50.974;10.322;2023-06-26T02:39:52;10.63;;;6.15;;
72720;SDS011;60835;50.974;10.322;2023-06-26T02:42:18;11.02;;;6.05;;
72720;SDS011;60835;50.974;10.322;2023-06-26T02:44:45;10.55;;;5.90;;
72720;SDS011;60835;50.974;10.322;2023-06-26T02:47:11;13.85;;;5.93;;
72720;SDS011;60835;50.974;10.322;2023-06-26T02:49:38;9.23;;;5.88;;
72720;SDS011;60835;50.974;10.322;2023-06-26T02:52:05;9.90;;;6.50;;
72720;SDS011;60835;50.974;10.322;2023-06-26T02:54:31;10.40;;;5.32;;
72720;SDS011;60835;50.974;10.322;2023-06-26T02:56:58;10.52;;;6.10;;
72720;SDS011;60835;50.974;10.322;2023-06-26T02:59:25;8.10;;;6.22;;
72720;SDS011;60835;50.974;10.322;2023-06-26T03:01:52;10.13;;;6.38;;
72720;SDS011;60835;50.974;10.322;2023-06-26T03:04:19;14.65;;;6.78;;
72720;SDS011;60835;50.974;10.322;2023-06-26T03:06:47;9.25;;;6.05;;
72720;SDS011;60835;50.974;10.322;2023-06-26T03:09:14;8.32;;;5.57;;
72720;SDS011;60835;50.974;10.322;2023-06-26T03:11:42;9.40;;;6.40;;
72720;SDS011;60835;50.974;10.322;2023-06-26T03:14:09;10.27;;;6.40;;
72720;SDS011;60835;50.974;10.322;2023-06-26T03:16:35;11.13;;;6.47;;
72720;SDS011;60835;50.974;10.322;2023-06-26T03:19:02;11.50;;;6.55;;
72720;SDS011;60835;50.974;10.322;2023-06-26T03:21:28;9.45;;;6.10;;
72720;SDS011;60835;50.974;10.322;2023-06-26T03:23:56;9.02;;;6.00;;
72720;SDS011;60835;50.974;10.322;2023-06-26T03:26:22;10.68;;;5.53;;
72720;SDS011;60835;50.974;10.322;2023-06-26T03:28:54;8.32;;;5.40;;
72720;SDS011;60835;50.974;10.322;2023-06-26T03:31:21;13.52;;;6.50;;
72720;SDS011;60835;50.974;10.322;2023-06-26T03:33:48;13.93;;;6.43;;
72720;SDS011;60835;50.974;10.322;2023-06-26T03:36:14;11.23;;;5.97;;
72720;SDS011;60835;50.974;10.322;2023-06-26T03:38:41;11.52;;;6.60;;
72720;SDS011;60835;50.974;10.322;2023-06-26T03:41:07;11.25;;;6.57;;
72720;SDS011;60835;50.974;10.322;2023-06-26T03:43:34;8.68;;;6.35;;
72720;SDS011;60835;50.974;10.322;2023-06-26T03:46:01;9.93;;;6.38;;
72720;SDS011;60835;50.974;10.322;2023-06-26T03:48:27;9.30;;;6.20;;
72720;SDS011;60835;50.974;10.322;2023-06-26T03:50:54;11.13;;;6.57;;
72720;SDS011;60835;50.974;10.322;2023-06-26T03:53:20;11.27;;;6.57;;
72720;SDS011;60835;50.974;10.322;2023-06-26T03:55:47;10.77;;;5.97;;
72720;SDS011;60835;50.974;10.322;2023-06-26T03:58:13;11.07;;;6.60;;
72720;SDS011;60835;50.974;10.322;2023-06-26T04:00:40;13.05;;;6.32;;
72720;SDS011;60835;50.974;10.322;2023-06-26T04:03:07;10.10;;;6.22;;
72720;SDS011;60835;50.974;10.322;2023-06-26T04:05:34;10.65;;;6.22;;
72720;SDS011;60835;50.974;10.322;2023-06-26T04:08:00;11.68;;;6.18;;
72720;SDS011;60835;50.974;10.322;2023-06-26T04:10:27;10.95;;;5.97;;
72720;SDS011;60835;50.974;10.322;2023-06-26T04:12:54;8.90;;;6.57;;
72720;SDS011;60835;50.974;10.322;2023-06-26T04:15:20;8.82;;;6.10;;
72720;SDS011;60835;50.974;10.322;2023-06-26T04:17:47;9.70;;;6.35;;
72720;SDS011;60835;50.974;10.322;2023-06-26T04:20:13;10.15;;;6.28;;
72720;SDS011;60835;50.974;10.322;2023-06-26T04:22:41;9.23;;;6.32;;
72720;SDS011;60835;50.974;10.322;2023-06-26T04:25:07;11.65;;;6.55;;
72720;SDS011;60835;50.974;10.322;2023-06-26T04:27:34;13.38;;;6.53;;
72720;SDS011;60835;50.974;10.322;2023-06-26T04:30:04;13.32;;;6.78;;
72720;SDS011;60835;50.974;10.322;2023-06-26T04:32:31;9.90;;;6.43;;
72720;SDS011;60835;50.974;10.322;2023-06-26T04:34:58;12.65;;;6.70;;
72720;SDS011;60835;50.974;10.322;2023-06-26T04:37:25;8.63;;;6.35;;
72720;SDS011;60835;50.974;10.322;2023-06-26T04:39:52;9.00;;;6.28;;
72720;SDS011;60835;50.974;10.322;2023-06-26T04:42:18;7.47;;;6.07;;
72720;SDS011;60835;50.974;10.322;2023-06-26T04:44:47;14.40;;;6.93;;
72720;SDS011;60835;50.974;10.322;2023-06-26T04:47:14;12.32;;;6.85;;
72720;SDS011;60835;50.974;10.322;2023-06-26T04:49:41;8.30;;;5.90;;
72720;SDS011;60835;50.974;10.322;2023-06-26T04:52:12;9.52;;;6.47;;
72720;SDS011;60835;50.974;10.322;2023-06-26T04:54:39;10.95;;;7.25;;
72720;SDS011;60835;50.974;10.322;2023-06-26T04:57:06;11.63;;;7.15;;
72720;SDS011;60835;50.974;10.322;2023-06-26T04:59:35;16.17;;;7.50;;
72720;SDS011;60835;50.974;10.322;2023-06-26T05:02:01;15.00;;;6.65;;
72720;SDS011;60835;50.974;10.322;2023-06-26T05:04:28;11.57;;;7.03;;
72720;SDS011;60835;50.974;10.322;2023-06-26T05:06:54;12.65;;;7.43;;
72720;SDS011;60835;50.974;10.322;2023-06-26T05:09:21;10.23;;;7.13;;
72720;SDS011;60835;50.974;10.322;2023-06-26T05:11:47;11.05;;;7.40;;
72720;SDS011;60835;50.974;10.322;2023-06-26T05:14:15;16.40;;;7.63;;
72720;SDS011;60835;50.974;10.322;2023-06-26T05:16:42;13.52;;;7.43;;
72720;SDS011;60835;50.974;10.322;2023-06-26T05:19:08;12.70;;;8.02;;
72720;SDS011;60835;50.974;10.322;2023-06-26T05:21:35;12.85;;;7.63;;
72720;SDS011;60835;50.974;10.322;2023-06-26T05:24:02;12.00;;;8.10;;
72720;SDS011;60835;50.974;10.322;2023-06-26T05:26:29;14.25;;;7.90;;
72720;SDS011;60835;50.974;10.322;2023-06-26T05:28:55;12.38;;;7.03;;
72720;SDS011;60835;50.974;10.322;2023-06-26T05:31:22;13.00;;;7.20;;
72720;SDS011;60835;50.974;10.322;2023-06-26T05:33:49;15.65;;;8.18;;
72720;SDS011;60835;50.974;10.322;2023-06-26T05:36:17;16.55;;;7.72;;
72720;SDS011;60835;50.974;10.322;2023-06-26T05:38:45;15.23;;;7.15;;
72720;SDS011;60835;50.974;10.322;2023-06-26T05:41:11;14.48;;;7.80;;
72720;SDS011;60835;50.974;10.322;2023-06-26T05:43:38;14.25;;;7.80;;
72720;SDS011;60835;50.974;10.322;2023-06-26T05:46:05;13.80;;;8.10;;
72720;SDS011;60835;50.974;10.322;2023-06-26T05:48:31;13.73;;;8.43;;
72720;SDS011;60835;50.974;10.322;2023-06-26T05:50:58;12.70;;;7.72;;
72720;SDS011;60835;50.974;10.322;2023-06-26T05:53:25;12.57;;;7.63;;
72720;SDS011;60835;50.974;10.322;2023-06-26T05:55:52;18.98;;;7.68;;
72720;SDS011;60835;50.974;10.322;2023-06-26T05:58:19;12.35;;;7.40;;
72720;SDS011;60835;50.974;10.322;2023-06-26T06:00:46;11.68;;;6.82;;
72720;SDS011;60835;50.974;10.322;2023-06-26T06:03:13;15.25;;;7.15;;
72720;SDS011;60835;50.974;10.322;2023-06-26T06:05:40;14.00;;;8.05;;
72720;SDS011;60835;50.974;10.322;2023-06-26T06:08:06;15.38;;;7.80;;
72720;SDS011;60835;50.974;10.322;2023-06-26T06:10:33;10.73;;;7.22;;
72720;SDS011;60835;50.974;10.322;2023-06-26T06:13:00;10.68;;;6.88;;
72720;SDS011;60835;50.974;10.322;2023-06-26T06:15:27;10.73;;;5.95;;
72720;SDS011;60835;50.974;10.322;2023-06-26T06:17:56;17.35;;;6.90;;
72720;SDS011;60835;50.974;10.322;2023-06-26T06:20:24;10.43;;;6.82;;
72720;SDS011;60835;50.974;10.322;2023-06-26T06:22:52;8.73;;;6.60;;
72720;SDS011;60835;50.974;10.322;2023-06-26T06:25:18;9.93;;;6.43;;
72720;SDS011;60835;50.974;10.322;2023-06-26T06:27:45;9.88;;;6.68;;
72720;SDS011;60835;50.974;10.322;2023-06-26T06:30:12;13.45;;;6.65;;
72720;SDS011;60835;50.974;10.322;2023-06-26T06:32:38;12.63;;;6.47;;
72720;SDS011;60835;50.974;10.322;2023-06-26T06:35:05;16.70;;;6.40;;
72720;SDS011;60835;50.974;10.322;2023-06-26T06:37:36;10.23;;;6.05;;
72720;SDS011;60835;50.974;10.322;2023-06-26T06:40:04;10.82;;;6.00;;
72720;SDS011;60835;50.974;10.322;2023-06-26T06:42:32;9.48;;;6.13;;
72720;SDS011;60835;50.974;10.322;2023-06-26T06:45:01;14.18;;;6.43;;
72720;SDS011;60835;50.974;10.322;2023-06-26T06:47:32;9.10;;;6.18;;
72720;SDS011;60835;50.974;10.322;2023-06-26T06:50:01;12.50;;;5.70;;
72720;SDS011;60835;50.974;10.322;2023-06-26T06:52:38;20.65;;;6.82;;
72720;SDS011;60835;50.974;10.322;2023-06-26T06:55:07;11.32;;;6.68;;
72720;SDS011;60835;50.974;10.322;2023-06-26T06:57:35;13.63;;;6.90;;
72720;SDS011;60835;50.974;10.322;2023-06-26T07:00:04;11.05;;;6.43;;
72720;SDS011;60835;50.974;10.322;2023-06-26T07:02:38;12.70;;;5.93;;
72720;SDS011;60835;50.974;10.322;2023-06-26T07:05:07;11.38;;;6.25;;
72720;SDS011;60835;50.974;10.322;2023-06-26T07:07:34;10.75;;;5.63;;
72720;SDS011;60835;50.974;10.322;2023-06-26T07:10:02;10.82;;;6.55;;
72720;SDS011;60835;50.974;10.322;2023-06-26T07:12:34;8.90;;;6.25;;
72720;SDS011;60835;50.974;10.322;2023-06-26T07:15:02;19.55;;;13.38;;
72720;SDS011;60835;50.974;10.322;2023-06-26T07:17:31;14.30;;;6.75;;
72720;SDS011;60835;50.974;10.322;2023-06-26T07:20:00;10.50;;;6.70;;
72720;SDS011;60835;50.974;10.322;2023-06-26T07:22:30;12.00;;;5.53;;
72720;SDS011;60835;50.974;10.322;2023-06-26T07:24:57;6.25;;;4.60;;
72720;SDS011;60835;50.974;10.322;2023-06-26T07:27:23;9.25;;;4.78;;
72720;SDS011;60835;50.974;10.322;2023-06-26T07:29:50;9.18;;;5.10;;
72720;SDS011;60835;50.974;10.322;2023-06-26T07:32:16;6.40;;;4.68;;
72720;SDS011;60835;50.974;10.322;2023-06-26T07:34:43;5.68;;;4.28;;
72720;SDS011;60835;50.974;10.322;2023-06-26T07:37:09;6.68;;;4.80;;
72720;SDS011;60835;50.974;10.322;2023-06-26T07:39:36;5.75;;;4.10;;
72720;SDS011;60835;50.974;10.322;2023-06-26T07:42:02;4.97;;;4.45;;
72720;SDS011;60835;50.974;10.322;2023-06-26T07:44:29;6.05;;;4.82;;
72720;SDS011;60835;50.974;10.322;2023-06-26T07:46:55;5.97;;;4.43;;
72720;SDS011;60835;50.974;10.322;2023-06-26T07:49:22;5.15;;;4.65;;
72720;SDS011;60835;50.974;10.322;2023-06-26T07:51:48;9.43;;;4.80;;
72720;SDS011;60835;50.974;10.322;2023-06-26T07:54:15;5.03;;;4.53;;
72720;SDS011;60835;50.974;10.322;2023-06-26T07:56:58;4.82;;;4.35;;
72720;SDS011;60835;50.974;10.322;2023-06-26T07:59:26;6.15;;;4.35;;
72720;SDS011;60835;50.974;10.322;2023-06-26T08:01:54;5.65;;;5.03;;
72720;SDS011;60835;50.974;10.322;2023-06-26T08:04:23;9.45;;;5.60;;
72720;SDS011;60835;50.974;10.322;2023-06-26T08:06:52;8.27;;;4.78;;
72720;SDS011;60835;50.974;10.322;2023-06-26T08:09:24;5.32;;;4.45;;
72720;SDS011;60835;50.974;10.322;2023-06-26T08:11:51;5.47;;;4.97;;
72720;SDS011;60835;50.974;10.322;2023-06-26T08:14:19;8.20;;;4.80;;
72720;SDS011;60835;50.974;10.322;2023-06-26T08:16:46;7.88;;;4.82;;
72720;SDS011;60835;50.974;10.322;2023-06-26T08:19:13;7.43;;;4.90;;
72720;SDS011;60835;50.974;10.322;2023-06-26T08:21:44;7.53;;;4.90;;
72720;SDS011;60835;50.974;10.322;2023-06-26T08:24:13;7.45;;;5.38;;
72720;SDS011;60835;50.974;10.322;2023-06-26T08:26:44;6.80;;;4.70;;
72720;SDS011;60835;50.974;10.322;2023-06-26T08:29:12;9.63;;;4.35;;
72720;SDS011;60835;50.974;10.322;2023-06-26T08:31:39;6.18;;;4.55;;
72720;SDS011;60835;50.974;10.322;2023-06-26T08:34:06;5.53;;;4.88;;
72720;SDS011;60835;50.974;10.322;2023-06-26T08:36:34;5.22;;;4.72;;
72720;SDS011;60835;50.974;10.322;2023-06-26T08:39:01;5.80;;;5.20;;
72720;SDS011;60835;50.974;10.322;2023-06-26T08:41:27;6.68;;;4.97;;
72720;SDS011;60835;50.974;10.322;2023-06-26T08:43:54;6.63;;;4.82;;
72720;SDS011;60835;50.974;10.322;2023-06-26T08:46:21;9.75;;;6.30;;
72720;SDS011;60835;50.974;10.322;2023-06-26T08:48:48;8.88;;;5.40;;
72720;SDS011;60835;50.974;10.322;2023-06-26T08:51:21;5.97;;;4.63;;
72720;SDS011;60835;50.974;10.322;2023-06-26T08:54:01;7.95;;;5.20;;
72720;SDS011;60835;50.974;10.322;2023-06-26T08:56:37;7.95;;;5.82;;
72720;SDS011;60835;50.974;10.322;2023-06-26T08:59:08;10.63;;;6.72;;
72720;SDS011;60835;50.974;10.322;2023-06-26T09:01:36;5.60;;;4.88;;
72720;SDS011;60835;50.974;10.322;2023-06-26T09:04:04;7.63;;;5.10;;
72720;SDS011;60835;50.974;10.322;2023-06-26T09:06:31;6.15;;;5.38;;
72720;SDS011;60835;50.974;10.322;2023-06-26T09:08:57;8.38;;;4.88;;
72720;SDS011;60835;50.974;10.322;2023-06-26T09:11:24;7.45;;;4.90;;
72720;SDS011;60835;50.974;10.322;2023-06-26T09:13:51;7.93;;;5.20;;
72720;SDS011;60835;50.974;10.322;2023-06-26T09:16:18;7.47;;;5.00;;
72720;SDS011;60835;50.974;10.322;2023-06-26T09:18:50;5.75;;;4.85;;
72720;SDS011;60835;50.974;10.322;2023-06-26T09:21:19;5.85;;;5.35;;
72720;SDS011;60835;50.974;10.322;2023-06-26T09:23:48;9.88;;;6.25;;
72720;SDS011;60835;50.974;10.322;2023-06-26T09:26:16;8.27;;;4.80;;
72720;SDS011;60835;50.974;10.322;2023-06-26T09:28:42;8.15;;;5.55;;
72720;SDS011;60835;50.974;10.322;2023-06-26T09:31:09;9.85;;;4.85;;
72720;SDS011;60835;50.974;10.322;2023-06-26T09:33:37;7.45;;;5.10;;
72720;SDS011;60835;50.974;10.322;2023-06-26T09:36:07;8.35;;;4.70;;
72720;SDS011;60835;50.974;10.322;2023-06-26T09:38:45;7.28;;;5.45;;
72720;SDS011;60835;50.974;10.322;2023-06-26T09:41:11;8.70;;;5.15;;
72720;SDS011;60835;50.974;10.322;2023-06-26T09:43:47;5.22;;;4.72;;
72720;SDS011;60835;50.974;10.322;2023-06-26T09:46:37;6.60;;;5.30;;
72720;SDS011;60835;50.974;10.322;2023-06-26T09:49:05;8.25;;;5.43;;
72720;SDS011;60835;50.974;10.322;2023-06-26T09:51:34;7.10;;;6.15;;
72720;SDS011;60835;50.974;10.322;2023-06-26T09:54:02;8.40;;;5.00;;
72720;SDS011;60835;50.974;10.322;2023-06-26T09:56:31;5.25;;;4.72;;
72720;SDS011;60835;50.974;10.322;2023-06-26T09:58:59;7.57;;;5.32;;
72720;SDS011;60835;50.974;10.322;2023-06-26T10:01:27;9.32;;;4.82;;
72720;SDS011;60835;50.974;10.322;2023-06-26T10:03:55;7.75;;;4.72;;
72720;SDS011;60835;50.974;10.322;2023-06-26T10:08:58;6.45;;;4.88;;
72720;SDS011;60835;50.974;10.322;2023-06-26T10:11:30;7.18;;;4.60;;
72720;SDS011;60835;50.974;10.322;2023-06-26T10:14:03;5.40;;;4.50;;
72720;SDS011;60835;50.974;10.322;2023-06-26T10:16:44;6.47;;;4.38;;
72720;SDS011;60835;50.974;10.322;2023-06-26T10:19:13;5.80;;;4.68;;
72720;SDS011;60835;50.974;10.322;2023-06-26T10:21:42;7.00;;;4.60;;
72720;SDS011;60835;50.974;10.322;2023-06-26T10:24:10;6.25;;;5.35;;
72720;SDS011;60835;50.974;10.322;2023-06-26T10:26:42;5.35;;;4.85;;
72720;SDS011;60835;50.974;10.322;2023-06-26T10:29:12;5.78;;;4.68;;
72720;SDS011;60835;50.974;10.322;2023-06-26T10:31:42;4.97;;;4.47;;
72720;SDS011;60835;50.974;10.322;2023-06-26T10:34:13;5.15;;;4.28;;
72720;SDS011;60835;50.974;10.322;2023-06-26T10:36:39;5.18;;;4.43;;
72720;SDS011;60835;50.974;10.322;2023-06-26T10:39:07;6.90;;;5.18;;
72720;SDS011;60835;50.974;10.322;2023-06-26T10:41:40;5.57;;;4.82;;
72720;SDS011;60835;50.974;10.322;2023-06-26T10:44:28;5.40;;;4.90;;
72720;SDS011;60835;50.974;10.322;2023-06-26T10:47:10;6.55;;;4.90;;
72720;SDS011;60835;50.974;10.322;2023-06-26T10:49:38;6.35;;;4.60;;
72720;SDS011;60835;50.974;10.322;2023-06-26T10:52:08;8.27;;;5.20;;
72720;SDS011;60835;50.974;10.322;2023-06-26T10:54:35;6.38;;;4.97;;
72720;SDS011;60835;50.974;10.322;2023-06-26T10:57:04;8.23;;;5.20;;
72720;SDS011;60835;50.974;10.322;2023-06-26T10:59:33;6.88;;;5.22;;
72720;SDS011;60835;50.974;10.322;2023-06-26T11:02:00;5.85;;;4.10;;
72720;SDS011;60835;50.974;10.322;2023-06-26T11:07:15;8.70;;;4.82;;
72720;SDS011;60835;50.974;10.322;2023-06-26T11:12:35;6.75;;;5.20;;
72720;SDS011;60835;50.974;10.322;2023-06-26T11:17:36;5.97;;;4.97;;
72720;SDS011;60835;50.974;10.322;2023-06-26T11:20:05;7.82;;;5.07;;
72720;SDS011;60835;50.974;10.322;2023-06-26T11:22:34;6.10;;;5.18;;
72720;SDS011;60835;50.974;10.322;2023-06-26T11:25:02;7.05;;;5.18;;
72720;SDS011;60835;50.974;10.322;2023-06-26T11:27:40;10.18;;;4.88;;
72720;SDS011;60835;50.974;10.322;2023-06-26T11:30:08;7.30;;;5.07;;
72720;SDS011;60835;50.974;10.322;2023-06-26T11:32:37;13.93;;;5.28;;
72720;SDS011;60835;50.974;10.322;2023-06-26T11:35:04;5.97;;;5.20;;
72720;SDS011;60835;50.974;10.322;2023-06-26T11:37:32;5.47;;;4.93;;
72720;SDS011;60835;50.974;10.322;2023-06-26T11:39:59;7.30;;;5.13;;
72720;SDS011;60835;50.974;10.322;2023-06-26T11:42:25;9.75;;;5.22;;
72720;SDS011;60835;50.974;10.322;2023-06-26T11:44:52;12.75;;;4.70;;
72720;SDS011;60835;50.974;10.322;2023-06-26T11:47:20;7.22;;;4.93;;
72720;SDS011;60835;50.974;10.322;2023-06-26T11:49:48;8.70;;;4.60;;
72720;SDS011;60835;50.974;10.322;2023-06-26T11:52:15;9.63;;;4.80;;
72720;SDS011;60835;50.974;10.322;2023-06-26T11:54:43;12.00;;;5.03;;
72720;SDS011;60835;50.974;10.322;2023-06-26T11:57:13;7.10;;;5.15;;
72720;SDS011;60835;50.974;10.322;2023-06-26T11:59:40;8.07;;;5.32;;
72720;SDS011;60835;50.974;10.322;2023-06-26T12:02:11;6.32;;;5.13;;
72720;SDS011;60835;50.974;10.322;2023-06-26T12:04:43;5.45;;;4.55;;
72720;SDS011;60835;50.974;10.322;2023-06-26T12:07:11;7.65;;;5.03;;
72720;SDS011;60835;50.974;10.322;2023-06-26T12:09:39;12.35;;;5.22;;
72720;SDS011;60835;50.974;10.322;2023-06-26T12:12:08;10.02;;;5.03;;
72720;SDS011;60835;50.974;10.322;2023-06-26T12:14:36;6.95;;;5.03;;
72720;SDS011;60835;50.974;10.322;2023-06-26T12:17:04;7.75;;;5.47;;
72720;SDS011;60835;50.974;10.322;2023-06-26T12:19:31;10.98;;;5.15;;
72720;SDS011;60835;50.974;10.322;2023-06-26T12:21:58;7.78;;;5.03;;
72720;SDS011;60835;50.974;10.322;2023-06-26T12:24:24;11.02;;;5.93;;
72720;SDS011;60835;50.974;10.322;2023-06-26T12:26:55;9.27;;;5.57;;
72720;SDS011;60835;50.974;10.322;2023-06-26T12:29:31;11.70;;;5.63;;
72720;SDS011;60835;50.974;10.322;2023-06-26T12:31:59;8.52;;;5.32;;
72720;SDS011;60835;50.974;10.322;2023-06-26T12:34:27;11.45;;;5.85;;
72720;SDS011;60835;50.974;10.322;2023-06-26T12:37:02;11.57;;;6.70;;
72720;SDS011;60835;50.974;10.322;2023-06-26T12:39:44;9.95;;;7.22;;
72720;SDS011;60835;50.974;10.322;2023-06-26T12:42:24;11.07;;;5.82;;
72720;SDS011;60835;50.974;10.322;2023-06-26T12:44:54;7.60;;;5.97;;
72720;SDS011;60835;50.974;10.322;2023-06-26T12:47:23;13.52;;;6.03;;
72720;SDS011;60835;50.974;10.322;2023-06-26T12:49:51;7.28;;;5.88;;
72720;SDS011;60835;50.974;10.322;2023-06-26T12:52:19;12.55;;;6.40;;
72720;SDS011;60835;50.974;10.322;2023-06-26T12:54:51;14.23;;;5.93;;
72720;SDS011;60835;50.974;10.322;2023-06-26T12:57:19;12.85;;;7.72;;
72720;SDS011;60835;50.974;10.322;2023-06-26T12:59:46;7.57;;;6.50;;
72720;SDS011;60835;50.974;10.322;2023-06-26T13:02:12;12.23;;;5.93;;
72720;SDS011;60835;50.974;10.322;2023-06-26T13:04:39;10.38;;;6.00;;
72720;SDS011;60835;50.974;10.322;2023-06-26T13:07:07;7.15;;;5.35;;
72720;SDS011;60835;50.974;10.322;2023-06-26T13:09:36;8.02;;;5.65;;
72720;SDS011;60835;50.974;10.322;2023-06-26T13:12:05;8.75;;;5.80;;
72720;SDS011;60835;50.974;10.322;2023-06-26T13:14:32;14.40;;;8.30;;
72720;SDS011;60835;50.974;10.322;2023-06-26T13:17:00;8.23;;;5.38;;
72720;SDS011;60835;50.974;10.322;2023-06-26T13:19:27;8.23;;;5.85;;
72720;SDS011;60835;50.974;10.322;2023-06-26T13:21:53;9.15;;;5.65;;
72720;SDS011;60835;50.974;10.322;2023-06-26T13:24:20;9.55;;;6.00;;
72720;SDS011;60835;50.974;10.322;2023-06-26T13:26:46;11.80;;;5.85;;
72720;SDS011;60835;50.974;10.322;2023-06-26T13:29:13;12.38;;;8.88;;
72720;SDS011;60835;50.974;10.322;2023-06-26T13:31:40;12.55;;;9.43;;
72720;SDS011;60835;50.974;10.322;2023-06-26T13:34:07;12.77;;;7.10;;
72720;SDS011;60835;50.974;10.322;2023-06-26T13:36:34;15.27;;;9.23;;
72720;SDS011;60835;50.974;10.322;2023-06-26T13:39:01;9.60;;;7.22;;
72720;SDS011;60835;50.974;10.322;2023-06-26T13:41:28;11.38;;;5.88;;
72720;SDS011;60835;50.974;10.322;2023-06-26T13:43:55;9.45;;;6.28;;
72720;SDS011;60835;50.974;10.322;2023-06-26T13:46:32;12.80;;;6.28;;
72720;SDS011;60835;50.974;10.322;2023-06-26T13:48:59;9.40;;;6.43;;
72720;SDS011;60835;50.974;10.322;2023-06-26T13:51:25;9.77;;;6.45;;
72720;SDS011;60835;50.974;10.322;2023-06-26T13:53:52;18.52;;;12.38;;
72720;SDS011;60835;50.974;10.322;2023-06-26T13:56:18;9.13;;;7.20;;
72720;SDS011;60835;50.974;10.322;2023-06-26T13:58:45;8.07;;;5.95;;
72720;SDS011;60835;50.974;10.322;2023-06-26T14:01:11;10.82;;;6.55;;
72720;SDS011;60835;50.974;10.322;2023-06-26T14:03:40;13.82;;;6.60;;
72720;SDS011;60835;50.974;10.322;2023-06-26T14:06:10;9.18;;;7.22;;
72720;SDS011;60835;50.974;10.322;2023-06-26T14:08:36;15.15;;;7.82;;
72720;SDS011;60835;50.974;10.322;2023-06-26T14:11:03;15.07;;;7.22;;
72720;SDS011;60835;50.974;10.322;2023-06-26T14:13:29;10.00;;;7.05;;
72720;SDS011;60835;50.974;10.322;2023-06-26T14:15:56;11.70;;;6.43;;
72720;SDS011;60835;50.974;10.322;2023-06-26T14:18:22;12.40;;;6.97;;
72720;SDS011;60835;50.974;10.322;2023-06-26T14:20:50;10.27;;;7.38;;
72720;SDS011;60835;50.974;10.322;2023-06-26T14:23:17;11.40;;;6.25;;
72720;SDS011;60835;50.974;10.322;2023-06-26T14:25:43;9.98;;;6.60;;
72720;SDS011;60835;50.974;10.322;2023-06-26T14:28:14;10.05;;;6.82;;
72720;SDS011;60835;50.974;10.322;2023-06-26T14:30:40;12.07;;;6.20;;
72720;SDS011;60835;50.974;10.322;2023-06-26T14:33:07;11.48;;;6.60;;
72720;SDS011;60835;50.974;10.322;2023-06-26T14:35:34;11.93;;;6.82;;
72720;SDS011;60835;50.974;10.322;2023-06-26T14:38:02;12.00;;;7.45;;
72720;SDS011;60835;50.974;10.322;2023-06-26T14:40:28;9.52;;;7.07;;
72720;SDS011;60835;50.974;10.322;2023-06-26T14:42:55;10.50;;;6.70;;
72720;SDS011;60835;50.974;10.322;2023-06-26T14:45:25;12.38;;;7.47;;
72720;SDS011;60835;50.974;10.322;2023-06-26T14:47:52;14.70;;;7.38;;
72720;SDS011;60835;50.974;10.322;2023-06-26T14:50:18;14.05;;;7.15;;